sensor_id;sensor_type;location;lat;lon;timestamp;pressure;altitude;pressure_sealevel;temperature;humidity
70521;BME280;58442;52.716;23.560;2024-01-16T00:00:02;98871.51;;;-0.63;74.96
70521;BME280;58442;52.716;23.560;2024-01-16T00:00:14;98876.55;;;-0.62;74.91
70521;BME280;58442;52.716;23.560;2024-01-16T00:00:30;98873.06;;;-0.62;74.92
70521;BME280;58442;52.716;23.560;2024-01-16T00:00:47;98878.40;;;-0.62;74.92
70521;BME280;58442;52.716;23.560;2024-01-16T00:01:03;98873.39;;;-0.64;74.94
70521;BME280;58442;52.716;23.560;2024-01-16T00:01:19;98874.96;;;-0.63;74.93
70521;BME280;58442;52.716;23.560;2024-01-16T00:01:30;98887.84;;;-0.65;74.93
70521;BME280;58442;52.716;23.560;2024-01-16T00:01:42;98869.63;;;-0.63;74.94
70521;BME280;58442;52.716;23.560;2024-01-16T00:01:54;98876.06;;;-0.64;74.94
70521;BME280;58442;52.716;23.560;2024-01-16T00:02:05;98880.62;;;-0.64;74.94
70521;BME280;58442;52.716;23.560;2024-01-16T00:02:19;98876.84;;;-0.63;74.95
70521;BME280;58442;52.716;23.560;2024-01-16T00:02:30;98884.07;;;-0.64;74.95
70521;BME280;58442;52.716;23.560;2024-01-16T00:02:42;98884.84;;;-0.63;74.96
70521;BME280;58442;52.716;23.560;2024-01-16T00:02:53;98885.95;;;-0.64;74.96
70521;BME280;58442;52.716;23.560;2024-01-16T00:03:04;98885.95;;;-0.64;74.95
70521;BME280;58442;52.716;23.560;2024-01-16T00:03:15;98876.84;;;-0.63;74.96
70521;BME280;58442;52.716;23.560;2024-01-16T00:03:27;98885.17;;;-0.65;74.96
70521;BME280;58442;52.716;23.560;2024-01-16T00:03:38;98888.62;;;-0.64;74.96
70521;BME280;58442;52.716;23.560;2024-01-16T00:03:49;98891.28;;;-0.64;74.96
70521;BME280;58442;52.716;23.560;2024-01-16T00:04:00;98889.41;;;-0.64;74.96
70521;BME280;58442;52.716;23.560;2024-01-16T00:04:11;98884.07;;;-0.64;74.96
70521;BME280;58442;52.716;23.560;2024-01-16T00:04:23;98883.28;;;-0.64;74.96
70521;BME280;58442;52.716;23.560;2024-01-16T00:04:36;98888.62;;;-0.64;74.95
70521;BME280;58442;52.716;23.560;2024-01-16T00:04:47;98885.95;;;-0.64;74.95
70521;BME280;58442;52.716;23.560;2024-01-16T00:04:59;98891.28;;;-0.64;74.97
70521;BME280;58442;52.716;23.560;2024-01-16T00:05:10;98883.28;;;-0.64;74.96
70521;BME280;58442;52.716;23.560;2024-01-16T00:05:21;98882.49;;;-0.65;74.97
70521;BME280;58442;52.716;23.560;2024-01-16T00:05:32;98889.41;;;-0.64;74.96
70521;BME280;58442;52.716;23.560;2024-01-16T00:05:44;98887.84;;;-0.65;74.96
70521;BME280;58442;52.716;23.560;2024-01-16T00:05:55;98882.49;;;-0.65;74.96
70521;BME280;58442;52.716;23.560;2024-01-16T00:06:06;98887.05;;;-0.65;74.97
70521;BME280;58442;52.716;23.560;2024-01-16T00:06:18;98892.39;;;-0.65;74.97
70521;BME280;58442;52.716;23.560;2024-01-16T00:06:30;98887.05;;;-0.65;74.96
70521;BME280;58442;52.716;23.560;2024-01-16T00:06:41;98888.48;;;-0.68;74.98
70521;BME280;58442;52.716;23.560;2024-01-16T00:06:53;98888.16;;;-0.66;74.97
70521;BME280;58442;52.716;23.560;2024-01-16T00:07:04;98886.28;;;-0.66;74.96
70521;BME280;58442;52.716;23.560;2024-01-16T00:07:15;98886.28;;;-0.66;74.97
70521;BME280;58442;52.716;23.560;2024-01-16T00:07:27;98888.16;;;-0.66;74.98
70521;BME280;58442;52.716;23.560;2024-01-16T00:07:39;98893.50;;;-0.66;74.97
70521;BME280;58442;52.716;23.560;2024-01-16T00:07:51;98885.50;;;-0.66;74.98
70521;BME280;58442;52.716;23.560;2024-01-16T00:08:03;98888.48;;;-0.68;74.98
70521;BME280;58442;52.716;23.560;2024-01-16T00:08:14;98893.82;;;-0.68;74.99
70521;BME280;58442;52.716;23.560;2024-01-16T00:08:25;98890.38;;;-0.68;75.00
70521;BME280;58442;52.716;23.560;2024-01-16T00:08:36;98889.56;;;-0.69;75.02
70521;BME280;58442;52.716;23.560;2024-01-16T00:08:47;98884.23;;;-0.69;75.01
70521;BME280;58442;52.716;23.560;2024-01-16T00:08:58;98893.04;;;-0.68;75.03
70521;BME280;58442;52.716;23.560;2024-01-16T00:09:09;98898.38;;;-0.68;75.05
70521;BME280;58442;52.716;23.560;2024-01-16T00:09:21;98888.00;;;-0.70;75.05
70521;BME280;58442;52.716;23.560;2024-01-16T00:09:34;98900.23;;;-0.69;75.05
70521;BME280;58442;52.716;23.560;2024-01-16T00:09:46;98902.12;;;-0.69;75.06
70521;BME280;58442;52.716;23.560;2024-01-16T00:09:57;98894.13;;;-0.69;75.05
70521;BME280;58442;52.716;23.560;2024-01-16T00:10:09;98897.56;;;-0.69;75.05
70521;BME280;58442;52.716;23.560;2024-01-16T00:10:32;98896.00;;;-0.70;75.06
70521;BME280;58442;52.716;23.560;2024-01-16T00:11:07;98908.24;;;-0.69;75.08
70521;BME280;58442;52.716;23.560;2024-01-16T00:11:24;98896.00;;;-0.70;75.08
70521;BME280;58442;52.716;23.560;2024-01-16T00:11:39;98901.33;;;-0.70;75.08
70521;BME280;58442;52.716;23.560;2024-01-16T00:11:51;98901.33;;;-0.70;75.08
70521;BME280;58442;52.716;23.560;2024-01-16T00:12:03;98908.55;;;-0.70;75.09
70521;BME280;58442;52.716;23.560;2024-01-16T00:12:14;98899.77;;;-0.71;75.09
70521;BME280;58442;52.716;23.560;2024-01-16T00:12:26;98913.89;;;-0.70;75.09
70521;BME280;58442;52.716;23.560;2024-01-16T00:12:37;98906.66;;;-0.70;75.10
70521;BME280;58442;52.716;23.560;2024-01-16T00:12:50;98905.11;;;-0.71;75.08
70521;BME280;58442;52.716;23.560;2024-01-16T00:13:01;98902.44;;;-0.71;75.09
70521;BME280;58442;52.716;23.560;2024-01-16T00:13:13;98902.44;;;-0.71;75.10
70521;BME280;58442;52.716;23.560;2024-01-16T00:13:24;98904.34;;;-0.71;75.10
70521;BME280;58442;52.716;23.560;2024-01-16T00:13:35;98910.45;;;-0.71;75.11
70521;BME280;58442;52.716;23.560;2024-01-16T00:13:46;98899.77;;;-0.71;75.13
70521;BME280;58442;52.716;23.560;2024-01-16T00:13:58;98905.11;;;-0.71;75.10
70521;BME280;58442;52.716;23.560;2024-01-16T00:14:09;98897.11;;;-0.71;75.11
70521;BME280;58442;52.716;23.560;2024-01-16T00:14:20;98903.22;;;-0.70;75.12
70521;BME280;58442;52.716;23.560;2024-01-16T00:14:35;98911.23;;;-0.70;75.12
70521;BME280;58442;52.716;23.560;2024-01-16T00:14:47;98907.77;;;-0.71;75.11
70521;BME280;58442;52.716;23.560;2024-01-16T00:14:58;98900.88;;;-0.72;75.11
70521;BME280;58442;52.716;23.560;2024-01-16T00:15:09;98912.34;;;-0.71;75.11
70521;BME280;58442;52.716;23.560;2024-01-16T00:15:20;98904.34;;;-0.71;75.11
70521;BME280;58442;52.716;23.560;2024-01-16T00:15:32;98900.88;;;-0.72;75.11
70521;BME280;58442;52.716;23.560;2024-01-16T00:15:43;98902.77;;;-0.72;75.12
70521;BME280;58442;52.716;23.560;2024-01-16T00:15:54;98909.67;;;-0.71;75.11
70521;BME280;58442;52.716;23.560;2024-01-16T00:16:07;98904.34;;;-0.71;75.13
70521;BME280;58442;52.716;23.560;2024-01-16T00:16:18;98907.77;;;-0.71;75.14
70521;BME280;58442;52.716;23.560;2024-01-16T00:16:29;98910.45;;;-0.71;75.15
70521;BME280;58442;52.716;23.560;2024-01-16T00:16:45;98910.45;;;-0.71;75.16
70521;BME280;58442;52.716;23.560;2024-01-16T00:16:56;98907.00;;;-0.71;75.16
70521;BME280;58442;52.716;23.560;2024-01-16T00:17:07;98901.66;;;-0.71;75.17
70521;BME280;58442;52.716;23.560;2024-01-16T00:17:19;98914.66;;;-0.70;75.17
70521;BME280;58442;52.716;23.560;2024-01-16T00:17:30;98917.34;;;-0.70;75.15
70521;BME280;58442;52.716;23.560;2024-01-16T00:17:41;98910.12;;;-0.69;75.15
70521;BME280;58442;52.716;23.560;2024-01-16T00:17:52;98910.12;;;-0.69;75.14
70521;BME280;58442;52.716;23.560;2024-01-16T00:18:04;98912.00;;;-0.70;75.13
70521;BME280;58442;52.716;23.560;2024-01-16T00:18:15;98910.12;;;-0.69;75.13
70521;BME280;58442;52.716;23.560;2024-01-16T00:18:27;98906.66;;;-0.70;75.12
70521;BME280;58442;52.716;23.560;2024-01-16T00:18:38;98908.24;;;-0.69;75.11
70521;BME280;58442;52.716;23.560;2024-01-16T00:18:49;98914.38;;;-0.68;75.11
70521;BME280;58442;52.716;23.560;2024-01-16T00:19:00;98910.91;;;-0.69;75.10
70521;BME280;58442;52.716;23.560;2024-01-16T00:19:11;98911.71;;;-0.68;75.10
70521;BME280;58442;52.716;23.560;2024-01-16T00:19:23;98906.38;;;-0.68;75.11
70521;BME280;58442;52.716;23.560;2024-01-16T00:19:34;98909.05;;;-0.68;75.15
70521;BME280;58442;52.716;23.560;2024-01-16T00:19:45;98914.38;;;-0.68;75.09
70521;BME280;58442;52.716;23.560;2024-01-16T00:19:57;98902.90;;;-0.69;75.09
70521;BME280;58442;52.716;23.560;2024-01-16T00:20:11;98915.16;;;-0.68;75.09
70521;BME280;58442;52.716;23.560;2024-01-16T00:20:22;98909.83;;;-0.68;75.08
70521;BME280;58442;52.716;23.560;2024-01-16T00:20:36;98900.23;;;-0.69;75.08
70521;BME280;58442;52.716;23.560;2024-01-16T00:20:47;98911.39;;;-0.67;75.08
70521;BME280;58442;52.716;23.560;2024-01-16T00:21:01;98910.60;;;-0.67;75.08
70521;BME280;58442;52.716;23.560;2024-01-16T00:21:15;98910.60;;;-0.67;75.07
70521;BME280;58442;52.716;23.560;2024-01-16T00:21:26;98905.27;;;-0.67;75.07
70521;BME280;58442;52.716;23.560;2024-01-16T00:21:41;98912.49;;;-0.68;75.05
70521;BME280;58442;52.716;23.560;2024-01-16T00:21:52;98913.58;;;-0.69;75.06
70521;BME280;58442;52.716;23.560;2024-01-16T00:22:04;98915.94;;;-0.67;75.06
70521;BME280;58442;52.716;23.560;2024-01-16T00:22:15;98914.38;;;-0.68;75.05
70521;BME280;58442;52.716;23.560;2024-01-16T00:22:29;98912.49;;;-0.68;75.05
70521;BME280;58442;52.716;23.560;2024-01-16T00:22:40;98914.38;;;-0.68;75.05
70521;BME280;58442;52.716;23.560;2024-01-16T00:22:51;98915.16;;;-0.68;75.05
70521;BME280;58442;52.716;23.560;2024-01-16T00:23:03;98920.49;;;-0.68;75.05
70521;BME280;58442;52.716;23.560;2024-01-16T00:23:14;98920.49;;;-0.68;75.07
70521;BME280;58442;52.716;23.560;2024-01-16T00:23:25;98914.38;;;-0.68;75.05
70521;BME280;58442;52.716;23.560;2024-01-16T00:23:37;98917.83;;;-0.68;75.05
70521;BME280;58442;52.716;23.560;2024-01-16T00:23:48;98914.38;;;-0.68;75.04
70521;BME280;58442;52.716;23.560;2024-01-16T00:23:59;98925.83;;;-0.68;75.04
70521;BME280;58442;52.716;23.560;2024-01-16T00:24:10;98921.27;;;-0.67;75.04
70521;BME280;58442;52.716;23.560;2024-01-16T00:24:21;98919.71;;;-0.68;75.05
70521;BME280;58442;52.716;23.560;2024-01-16T00:24:32;98920.49;;;-0.68;74.91
70521;BME280;58442;52.716;23.560;2024-01-16T00:24:43;98920.49;;;-0.68;75.04
70521;BME280;58442;52.716;23.560;2024-01-16T00:24:54;98920.49;;;-0.68;75.05
70521;BME280;58442;52.716;23.560;2024-01-16T00:25:06;98925.05;;;-0.68;75.05
70521;BME280;58442;52.716;23.560;2024-01-16T00:25:18;98920.49;;;-0.68;75.05
70521;BME280;58442;52.716;23.560;2024-01-16T00:25:32;98924.24;;;-0.69;75.05
70521;BME280;58442;52.716;23.560;2024-01-16T00:25:43;98920.49;;;-0.68;75.05
70521;BME280;58442;52.716;23.560;2024-01-16T00:25:54;98922.05;;;-0.67;75.04
70521;BME280;58442;52.716;23.560;2024-01-16T00:26:05;98926.61;;;-0.67;75.03
70521;BME280;58442;52.716;23.560;2024-01-16T00:26:23;98923.16;;;-0.68;75.04
70521;BME280;58442;52.716;23.560;2024-01-16T00:26:34;98921.27;;;-0.67;75.03
70521;BME280;58442;52.716;23.560;2024-01-16T00:26:45;98919.71;;;-0.68;75.03
70521;BME280;58442;52.716;23.560;2024-01-16T00:26:57;98919.71;;;-0.68;75.03
70521;BME280;58442;52.716;23.560;2024-01-16T00:27:08;98920.49;;;-0.68;75.02
70521;BME280;58442;52.716;23.560;2024-01-16T00:27:19;98917.83;;;-0.68;75.01
70521;BME280;58442;52.716;23.560;2024-01-16T00:27:30;98925.83;;;-0.68;75.02
70521;BME280;58442;52.716;23.560;2024-01-16T00:27:41;98923.16;;;-0.68;75.02
70521;BME280;58442;52.716;23.560;2024-01-16T00:27:54;98919.71;;;-0.68;75.02
70521;BME280;58442;52.716;23.560;2024-01-16T00:28:06;98925.83;;;-0.68;75.01
70521;BME280;58442;52.716;23.560;2024-01-16T00:28:17;98925.05;;;-0.68;75.02
70521;BME280;58442;52.716;23.560;2024-01-16T00:28:32;98928.50;;;-0.68;75.02
70521;BME280;58442;52.716;23.560;2024-01-16T00:28:43;98929.58;;;-0.69;75.02
70521;BME280;58442;52.716;23.560;2024-01-16T00:28:54;98925.05;;;-0.68;75.02
70521;BME280;58442;52.716;23.560;2024-01-16T00:29:05;98930.39;;;-0.68;75.02
70521;BME280;58442;52.716;23.560;2024-01-16T00:29:16;98929.58;;;-0.69;75.02
70521;BME280;58442;52.716;23.560;2024-01-16T00:29:28;98925.05;;;-0.68;75.01
70521;BME280;58442;52.716;23.560;2024-01-16T00:29:39;98928.50;;;-0.68;75.02
70521;BME280;58442;52.716;23.560;2024-01-16T00:29:50;98922.39;;;-0.68;75.03
70521;BME280;58442;52.716;23.560;2024-01-16T00:30:01;98921.58;;;-0.69;75.04
70521;BME280;58442;52.716;23.560;2024-01-16T00:30:12;98928.00;;;-0.70;75.03
70521;BME280;58442;52.716;23.560;2024-01-16T00:30:24;98933.05;;;-0.68;75.03
70521;BME280;58442;52.716;23.560;2024-01-16T00:30:35;98929.58;;;-0.69;75.04
70521;BME280;58442;52.716;23.560;2024-01-16T00:30:46;98931.16;;;-0.68;75.03
70521;BME280;58442;52.716;23.560;2024-01-16T00:30:57;98934.91;;;-0.69;75.05
70521;BME280;58442;52.716;23.560;2024-01-16T00:31:09;98936.50;;;-0.68;75.04
70521;BME280;58442;52.716;23.560;2024-01-16T00:31:20;98936.50;;;-0.68;75.04
70521;BME280;58442;52.716;23.560;2024-01-16T00:31:31;98935.73;;;-0.68;75.05
70521;BME280;58442;52.716;23.560;2024-01-16T00:31:42;98930.39;;;-0.68;75.05
70521;BME280;58442;52.716;23.560;2024-01-16T00:31:53;98930.39;;;-0.68;75.04
70521;BME280;58442;52.716;23.560;2024-01-16T00:32:05;98927.38;;;-0.67;75.04
70521;BME280;58442;52.716;23.560;2024-01-16T00:32:16;98929.28;;;-0.67;75.04
70521;BME280;58442;52.716;23.560;2024-01-16T00:32:27;98933.83;;;-0.68;75.04
70521;BME280;58442;52.716;23.560;2024-01-16T00:32:41;98936.50;;;-0.68;75.05
70521;BME280;58442;52.716;23.560;2024-01-16T00:32:52;98927.72;;;-0.68;75.05
70521;BME280;58442;52.716;23.560;2024-01-16T00:33:03;98928.50;;;-0.68;75.05
70521;BME280;58442;52.716;23.560;2024-01-16T00:33:14;98934.61;;;-0.67;75.04
70521;BME280;58442;52.716;23.560;2024-01-16T00:33:25;98935.39;;;-0.67;75.04
70521;BME280;58442;52.716;23.560;2024-01-16T00:33:38;98928.50;;;-0.68;75.04
70521;BME280;58442;52.716;23.560;2024-01-16T00:33:50;98937.28;;;-0.67;75.03
70521;BME280;58442;52.716;23.560;2024-01-16T00:34:01;98936.96;;;-0.66;75.04
70521;BME280;58442;52.716;23.560;2024-01-16T00:34:12;98932.72;;;-0.67;75.02
70521;BME280;58442;52.716;23.560;2024-01-16T00:34:23;98932.72;;;-0.67;75.03
70521;BME280;58442;52.716;23.560;2024-01-16T00:34:35;98931.63;;;-0.66;75.02
70521;BME280;58442;52.716;23.560;2024-01-16T00:34:46;98931.63;;;-0.66;75.02
70521;BME280;58442;52.716;23.560;2024-01-16T00:34:57;98930.84;;;-0.66;75.01
70521;BME280;58442;52.716;23.560;2024-01-16T00:35:08;98931.63;;;-0.66;75.00
70521;BME280;58442;52.716;23.560;2024-01-16T00:35:19;98934.30;;;-0.66;75.00
70521;BME280;58442;52.716;23.560;2024-01-16T00:35:30;98929.73;;;-0.65;75.00
70521;BME280;58442;52.716;23.560;2024-01-16T00:35:42;98931.30;;;-0.64;75.02
70521;BME280;58442;52.716;23.560;2024-01-16T00:35:53;98931.63;;;-0.66;75.00
70521;BME280;58442;52.716;23.560;2024-01-16T00:36:05;98929.73;;;-0.65;75.00
70521;BME280;58442;52.716;23.560;2024-01-16T00:36:16;98933.19;;;-0.65;75.00
70521;BME280;58442;52.716;23.560;2024-01-16T00:36:27;98933.97;;;-0.64;74.99
70521;BME280;58442;52.716;23.560;2024-01-16T00:36:38;98933.97;;;-0.64;74.98
70521;BME280;58442;52.716;23.560;2024-01-16T00:36:49;98933.19;;;-0.65;74.98
70521;BME280;58442;52.716;23.560;2024-01-16T00:37:00;98936.63;;;-0.64;74.97
70521;BME280;58442;52.716;23.560;2024-01-16T00:37:11;98929.41;;;-0.64;74.96
70521;BME280;58442;52.716;23.560;2024-01-16T00:37:22;98932.08;;;-0.64;74.97
70521;BME280;58442;52.716;23.560;2024-01-16T00:37:33;98936.63;;;-0.64;74.96
70521;BME280;58442;52.716;23.560;2024-01-16T00:37:45;98932.87;;;-0.63;74.96
70521;BME280;58442;52.716;23.560;2024-01-16T00:37:56;98935.53;;;-0.63;74.94
70521;BME280;58442;52.716;23.560;2024-01-16T00:38:07;98930.98;;;-0.63;74.94
70521;BME280;58442;52.716;23.560;2024-01-16T00:38:18;98933.64;;;-0.63;74.94
70521;BME280;58442;52.716;23.560;2024-01-16T00:38:32;98928.30;;;-0.63;74.92
70521;BME280;58442;52.716;23.560;2024-01-16T00:38:43;98935.53;;;-0.63;74.92
70521;BME280;58442;52.716;23.560;2024-01-16T00:38:56;98934.41;;;-0.62;74.91
70521;BME280;58442;52.716;23.560;2024-01-16T00:39:07;98933.64;;;-0.63;74.90
70521;BME280;58442;52.716;23.560;2024-01-16T00:39:19;98928.30;;;-0.63;74.90
70521;BME280;58442;52.716;23.560;2024-01-16T00:39:30;98931.75;;;-0.62;74.89
70521;BME280;58442;52.716;23.560;2024-01-16T00:39:41;98922.98;;;-0.63;74.88
70521;BME280;58442;52.716;23.560;2024-01-16T00:39:53;98933.64;;;-0.63;74.88
70521;BME280;58442;52.716;23.560;2024-01-16T00:40:05;98931.75;;;-0.62;74.87
70521;BME280;58442;52.716;23.560;2024-01-16T00:40:16;98929.09;;;-0.62;74.87
70521;BME280;58442;52.716;23.560;2024-01-16T00:40:27;98931.75;;;-0.62;74.87
70521;BME280;58442;52.716;23.560;2024-01-16T00:40:39;98929.09;;;-0.62;74.87
70521;BME280;58442;52.716;23.560;2024-01-16T00:40:50;98927.23;;;-0.62;74.87
70521;BME280;58442;52.716;23.560;2024-01-16T00:41:01;98934.41;;;-0.62;74.85
70521;BME280;58442;52.716;23.560;2024-01-16T00:41:12;98922.98;;;-0.63;74.83
70521;BME280;58442;52.716;23.560;2024-01-16T00:41:25;98926.41;;;-0.62;74.79
70521;BME280;58442;52.716;23.560;2024-01-16T00:41:37;98919.23;;;-0.62;74.77
70521;BME280;58442;52.716;23.560;2024-01-16T00:41:48;98923.75;;;-0.62;74.78
70521;BME280;58442;52.716;23.560;2024-01-16T00:42:02;98926.41;;;-0.62;74.77
70521;BME280;58442;52.716;23.560;2024-01-16T00:42:13;98925.64;;;-0.63;74.75
70521;BME280;58442;52.716;23.560;2024-01-16T00:42:24;98920.30;;;-0.63;74.74
70521;BME280;58442;52.716;23.560;2024-01-16T00:42:35;98929.90;;;-0.62;74.75
70521;BME280;58442;52.716;23.560;2024-01-16T00:42:46;98923.75;;;-0.62;74.73
70521;BME280;58442;52.716;23.560;2024-01-16T00:42:57;98928.30;;;-0.63;74.72
70521;BME280;58442;52.716;23.560;2024-01-16T00:43:09;98928.30;;;-0.63;74.72
70521;BME280;58442;52.716;23.560;2024-01-16T00:43:20;98929.09;;;-0.62;74.72
70521;BME280;58442;52.716;23.560;2024-01-16T00:43:31;98921.41;;;-0.64;74.73
70521;BME280;58442;52.716;23.560;2024-01-16T00:43:45;98925.64;;;-0.63;74.73
70521;BME280;58442;52.716;23.560;2024-01-16T00:43:56;98924.08;;;-0.64;74.74
70521;BME280;58442;52.716;23.560;2024-01-16T00:44:07;98922.20;;;-0.63;74.73
70521;BME280;58442;52.716;23.560;2024-01-16T00:44:19;98924.08;;;-0.64;74.73
70521;BME280;58442;52.716;23.560;2024-01-16T00:44:30;98922.98;;;-0.63;74.73
70521;BME280;58442;52.716;23.560;2024-01-16T00:44:41;98920.63;;;-0.64;74.73
70521;BME280;58442;52.716;23.560;2024-01-16T00:44:52;98918.75;;;-0.64;74.74
70521;BME280;58442;52.716;23.560;2024-01-16T00:45:04;98922.51;;;-0.65;74.74
70521;BME280;58442;52.716;23.560;2024-01-16T00:45:15;98919.84;;;-0.65;74.74
70521;BME280;58442;52.716;23.560;2024-01-16T00:45:28;98917.17;;;-0.65;74.75
70521;BME280;58442;52.716;23.560;2024-01-16T00:45:39;98920.63;;;-0.64;74.74
70521;BME280;58442;52.716;23.560;2024-01-16T00:45:51;98927.84;;;-0.65;74.75
70521;BME280;58442;52.716;23.560;2024-01-16T00:46:02;98917.17;;;-0.65;74.74
70521;BME280;58442;52.716;23.560;2024-01-16T00:46:14;98925.18;;;-0.65;74.73
70521;BME280;58442;52.716;23.560;2024-01-16T00:46:25;98921.73;;;-0.65;74.73
70521;BME280;58442;52.716;23.560;2024-01-16T00:46:36;98926.30;;;-0.66;74.73
70521;BME280;58442;52.716;23.560;2024-01-16T00:46:47;98925.96;;;-0.64;74.74
70521;BME280;58442;52.716;23.560;2024-01-16T00:46:58;98925.18;;;-0.65;74.73
70521;BME280;58442;52.716;23.560;2024-01-16T00:47:12;98928.96;;;-0.66;74.69
70521;BME280;58442;52.716;23.560;2024-01-16T00:47:23;98924.40;;;-0.65;74.67
70521;BME280;58442;52.716;23.560;2024-01-16T00:47:34;98921.73;;;-0.65;74.66
70521;BME280;58442;52.716;23.560;2024-01-16T00:47:46;98929.73;;;-0.65;74.65
70521;BME280;58442;52.716;23.560;2024-01-16T00:47:57;98919.07;;;-0.65;74.63
70521;BME280;58442;52.716;23.560;2024-01-16T00:48:08;98922.05;;;-0.67;74.61
70521;BME280;58442;52.716;23.560;2024-01-16T00:48:24;98931.63;;;-0.66;74.55
70521;BME280;58442;52.716;23.560;2024-01-16T00:48:35;98933.51;;;-0.66;74.58
70521;BME280;58442;52.716;23.560;2024-01-16T00:48:46;98938.05;;;-0.67;74.58
70521;BME280;58442;52.716;23.560;2024-01-16T00:48:58;98925.83;;;-0.68;74.57
70521;BME280;58442;52.716;23.560;2024-01-16T00:49:10;98926.61;;;-0.67;74.58
70521;BME280;58442;52.716;23.560;2024-01-16T00:49:21;98925.83;;;-0.68;74.57
70521;BME280;58442;52.716;23.560;2024-01-16T00:49:32;98928.50;;;-0.68;74.58
70521;BME280;58442;52.716;23.560;2024-01-16T00:49:43;98931.16;;;-0.68;74.70
70521;BME280;58442;52.716;23.560;2024-01-16T00:49:54;98929.58;;;-0.69;74.56
70521;BME280;58442;52.716;23.560;2024-01-16T00:50:06;98938.68;;;-0.70;74.54
70521;BME280;58442;52.716;23.560;2024-01-16T00:50:17;98934.12;;;-0.69;74.53
70521;BME280;58442;52.716;23.560;2024-01-16T00:50:28;98922.67;;;-0.70;74.46
70521;BME280;58442;52.716;23.560;2024-01-16T00:50:41;98928.00;;;-0.70;74.51
70521;BME280;58442;52.716;23.560;2024-01-16T00:50:53;98936.01;;;-0.70;74.51
70521;BME280;58442;52.716;23.560;2024-01-16T00:51:04;98936.79;;;-0.69;74.50
70521;BME280;58442;52.716;23.560;2024-01-16T00:51:15;98937.90;;;-0.70;74.50
70521;BME280;58442;52.716;23.560;2024-01-16T00:51:26;98929.12;;;-0.71;74.50
70521;BME280;58442;52.716;23.560;2024-01-16T00:51:37;98929.12;;;-0.71;74.46
70521;BME280;58442;52.716;23.560;2024-01-16T00:51:49;98930.22;;;-0.72;74.47
70521;BME280;58442;52.716;23.560;2024-01-16T00:52:00;98936.34;;;-0.71;74.47
70521;BME280;58442;52.716;23.560;2024-01-16T00:52:11;98940.88;;;-0.72;74.47
70521;BME280;58442;52.716;23.560;2024-01-16T00:52:22;98931.32;;;-0.73;74.48
70521;BME280;58442;52.716;23.560;2024-01-16T00:52:33;98937.44;;;-0.72;74.49
70521;BME280;58442;52.716;23.560;2024-01-16T00:52:44;98934.30;;;-0.74;74.50
70521;BME280;58442;52.716;23.560;2024-01-16T00:52:55;98933.99;;;-0.73;74.50
70521;BME280;58442;52.716;23.560;2024-01-16T00:53:06;98946.55;;;-0.73;74.51
70521;BME280;58442;52.716;23.560;2024-01-16T00:53:17;98939.64;;;-0.74;74.52
70521;BME280;58442;52.716;23.560;2024-01-16T00:53:29;98948.42;;;-0.74;74.47
70521;BME280;58442;52.716;23.560;2024-01-16T00:53:43;98941.53;;;-0.75;74.47
70521;BME280;58442;52.716;23.560;2024-01-16T00:53:54;98938.87;;;-0.75;74.47
70521;BME280;58442;52.716;23.560;2024-01-16T00:54:05;98944.20;;;-0.75;74.45
70521;BME280;58442;52.716;23.560;2024-01-16T00:54:18;98940.76;;;-0.75;74.44
70521;BME280;58442;52.716;23.560;2024-01-16T00:54:29;98945.27;;;-0.76;74.44
70521;BME280;58442;52.716;23.560;2024-01-16T00:54:40;98948.76;;;-0.75;74.44
70521;BME280;58442;52.716;23.560;2024-01-16T00:54:52;98941.83;;;-0.76;74.44
70521;BME280;58442;52.716;23.560;2024-01-16T00:55:04;98949.82;;;-0.76;74.44
70521;BME280;58442;52.716;23.560;2024-01-16T00:55:15;98951.72;;;-0.77;74.42
70521;BME280;58442;52.716;23.560;2024-01-16T00:55:26;98945.60;;;-0.77;74.42
70521;BME280;58442;52.716;23.560;2024-01-16T00:55:37;98950.15;;;-0.78;74.41
70521;BME280;58442;52.716;23.560;2024-01-16T00:55:49;98948.27;;;-0.77;74.40
70521;BME280;58442;52.716;23.560;2024-01-16T00:56:03;98948.27;;;-0.77;74.41
70521;BME280;58442;52.716;23.560;2024-01-16T00:56:14;98950.15;;;-0.78;74.41
70521;BME280;58442;52.716;23.560;2024-01-16T00:56:25;98957.05;;;-0.77;74.41
70521;BME280;58442;52.716;23.560;2024-01-16T00:56:38;98952.03;;;-0.78;74.42
70521;BME280;58442;52.716;23.560;2024-01-16T00:56:52;98951.25;;;-0.79;74.40
70521;BME280;58442;52.716;23.560;2024-01-16T00:57:10;98946.70;;;-0.78;74.39
70521;BME280;58442;52.716;23.560;2024-01-16T00:57:21;98949.69;;;-0.80;74.40
70521;BME280;58442;52.716;23.560;2024-01-16T00:57:32;98956.59;;;-0.79;74.40
70521;BME280;58442;52.716;23.560;2024-01-16T00:57:43;98958.48;;;-0.79;74.42
70521;BME280;58442;52.716;23.560;2024-01-16T00:57:55;98953.92;;;-0.79;74.39
70521;BME280;58442;52.716;23.560;2024-01-16T00:58:06;98954.23;;;-0.80;74.40
70521;BME280;58442;52.716;23.560;2024-01-16T00:58:17;98956.13;;;-0.81;74.46
70521;BME280;58442;52.716;23.560;2024-01-16T00:58:28;98959.57;;;-0.80;74.39
70521;BME280;58442;52.716;23.560;2024-01-16T00:58:39;98960.36;;;-0.80;74.40
70521;BME280;58442;52.716;23.560;2024-01-16T00:58:50;98955.02;;;-0.80;74.40
70521;BME280;58442;52.716;23.560;2024-01-16T00:59:03;98960.36;;;-0.80;74.39
70521;BME280;58442;52.716;23.560;2024-01-16T00:59:14;98964.13;;;-0.81;74.40
70521;BME280;58442;52.716;23.560;2024-01-16T00:59:25;98961.46;;;-0.81;74.41
70521;BME280;58442;52.716;23.560;2024-01-16T00:59:37;98962.23;;;-0.80;74.40
70521;BME280;58442;52.716;23.560;2024-01-16T00:59:48;98962.57;;;-0.82;74.39
70521;BME280;58442;52.716;23.560;2024-01-16T00:59:59;98963.34;;;-0.81;74.38
70521;BME280;58442;52.716;23.560;2024-01-16T01:00:11;98964.13;;;-0.81;74.38
70521;BME280;58442;52.716;23.560;2024-01-16T01:00:22;98962.23;;;-0.80;74.38
70521;BME280;58442;52.716;23.560;2024-01-16T01:00:33;98958.80;;;-0.81;74.37
70521;BME280;58442;52.716;23.560;2024-01-16T01:00:47;98967.90;;;-0.82;74.36
70521;BME280;58442;52.716;23.560;2024-01-16T01:00:58;98967.90;;;-0.82;74.33
70521;BME280;58442;52.716;23.560;2024-01-16T01:01:10;98967.90;;;-0.82;74.32
70521;BME280;58442;52.716;23.560;2024-01-16T01:01:21;98974.01;;;-0.81;74.31
70521;BME280;58442;52.716;23.560;2024-01-16T01:01:32;98972.42;;;-0.83;74.30